createdAt,value
2019-01-23T00:00:49.501Z,72.06
2019-01-23T00:03:16.971Z,71.64
2019-01-23T00:05:44.455Z,71.67
2019-01-23T00:08:12.223Z,72.09
2019-01-23T00:10:39.824Z,71.95
2019-01-23T00:13:07.230Z,72.28
2019-01-23T00:15:34.961Z,72.01
2019-01-23T00:18:03.009Z,72.08
2019-01-23T00:20:30.705Z,72.17
2019-01-23T00:22:58.735Z,71.98
2019-01-23T00:25:27.052Z,71.92
2019-01-23T00:27:54.475Z,72.05
2019-01-23T00:30:22.777Z,71.88
2019-01-23T00:32:50.186Z,72.20
2019-01-23T00:35:17.659Z,72.21
2019-01-23T00:37:45.303Z,72.05
2019-01-23T00:40:13.130Z,72.60
2019-01-23T00:42:40.958Z,71.99
2019-01-23T00:45:10.011Z,72.05
2019-01-23T00:47:40.920Z,72.27
2019-01-23T00:50:12.449Z,72.20
2019-01-23T00:52:40.553Z,72.04
2019-01-23T00:55:11.039Z,72.33
2019-01-23T00:57:38.940Z,71.86
2019-01-23T01:00:14.771Z,72.95
2019-01-23T01:02:42.358Z,72.74
2019-01-23T01:05:10.192Z,72.35
2019-01-23T01:07:38.746Z,72.03
2019-01-23T01:10:10.286Z,72.38
2019-01-23T01:12:38.034Z,72.37
2019-01-23T01:15:05.944Z,71.46
2019-01-23T01:17:33.345Z,72.36
2019-01-23T01:20:00.888Z,72.84
2019-01-23T01:22:28.255Z,72.67
2019-01-23T01:24:56.069Z,72.46
2019-01-23T01:27:24.403Z,71.85
2019-01-23T01:29:51.588Z,72.03
2019-01-23T01:32:19.371Z,72.23
2019-01-23T01:34:46.842Z,71.80
2019-01-23T01:37:14.361Z,71.90
2019-01-23T01:39:42.076Z,72.25
2019-01-23T01:42:09.488Z,71.78
2019-01-23T01:44:36.662Z,71.94
2019-01-23T01:47:04.574Z,71.84
2019-01-23T01:49:32.344Z,71.61
2019-01-23T01:52:00.561Z,71.54
2019-01-23T01:54:28.055Z,71.24
2019-01-23T01:56:55.472Z,71.62
2019-01-23T01:59:23.021Z,71.84
2019-01-23T02:01:50.311Z,71.31
2019-01-23T02:04:18.131Z,71.26
2019-01-23T02:06:45.883Z,71.75
2019-01-23T02:09:13.632Z,71.41
2019-01-23T02:11:41.372Z,71.70
2019-01-23T02:14:08.949Z,71.08
2019-01-23T02:16:36.348Z,70.94
2019-01-23T02:19:03.899Z,70.66
2019-01-23T02:21:31.710Z,71.58
2019-01-23T02:23:59.414Z,70.85
2019-01-23T02:26:27.054Z,70.36
2019-01-23T02:28:54.651Z,70.91
2019-01-23T02:31:22.337Z,70.54
2019-01-23T02:33:49.932Z,70.84
2019-01-23T02:36:17.520Z,70.79
2019-01-23T02:38:44.921Z,70.74
2019-01-23T02:41:12.533Z,70.30
2019-01-23T02:43:39.792Z,70.44
2019-01-23T02:46:07.458Z,71.11
2019-01-23T02:48:34.755Z,70.54
2019-01-23T02:51:02.001Z,70.39
2019-01-23T02:53:29.857Z,70.37
2019-01-23T02:56:17.312Z,70.11
2019-01-23T02:58:44.741Z,70.92
2019-01-23T03:01:12.305Z,70.01
2019-01-23T03:03:40.338Z,70.72
2019-01-23T03:06:07.869Z,70.70
2019-01-23T03:08:35.395Z,70.52
2019-01-23T03:11:03.009Z,71.33
2019-01-23T03:13:30.660Z,71.20
2019-01-23T03:15:58.430Z,70.76
2019-01-23T03:18:26.312Z,69.81
2019-01-23T03:20:54.157Z,70.47
2019-01-23T03:23:22.516Z,70.28
2019-01-23T03:25:50.330Z,70.42
2019-01-23T03:28:17.873Z,70.25
2019-01-23T03:30:45.849Z,70.00
2019-01-23T03:33:14.024Z,70.32
2019-01-23T03:35:41.764Z,70.11
2019-01-23T03:38:09.130Z,70.34
2019-01-23T03:40:36.785Z,70.03
2019-01-23T03:43:04.389Z,70.51
2019-01-23T03:45:32.329Z,70.51
2019-01-23T03:47:59.944Z,70.53
2019-01-23T03:50:27.302Z,70.09
2019-01-23T03:52:54.827Z,70.68
2019-01-23T03:55:22.243Z,70.18
2019-01-23T03:57:49.608Z,69.81
2019-01-23T04:00:19.966Z,69.69
2019-01-23T04:02:48.916Z,69.72
2019-01-23T04:05:16.595Z,69.98
2019-01-23T04:07:44.391Z,69.83
2019-01-23T04:10:14.060Z,70.44
2019-01-23T04:12:42.423Z,69.71
2019-01-23T04:15:12.473Z,70.03
2019-01-23T04:17:40.091Z,70.24
2019-01-23T04:20:12.305Z,69.84
2019-01-23T04:22:40.458Z,69.79
2019-01-23T04:25:08.223Z,70.22
2019-01-23T04:27:35.872Z,70.49
2019-01-23T04:30:06.361Z,71.00
2019-01-23T04:32:34.494Z,70.66
2019-01-23T04:35:02.160Z,70.07
2019-01-23T04:37:29.539Z,70.61
2019-01-23T04:39:57.331Z,70.52
2019-01-23T04:42:25.086Z,70.64
2019-01-23T04:44:52.615Z,70.72
2019-01-23T04:47:19.970Z,71.02
2019-01-23T04:49:47.482Z,70.75
2019-01-23T04:52:40.760Z,70.61
2019-01-23T04:55:08.818Z,70.70
2019-01-23T04:57:36.337Z,70.85
2019-01-23T05:00:06.502Z,70.58
2019-01-23T05:02:34.811Z,70.73
2019-01-23T05:05:02.873Z,71.00
2019-01-23T05:07:30.466Z,70.41
2019-01-23T05:09:58.150Z,70.82
2019-01-23T05:12:25.490Z,70.96
2019-01-23T05:14:53.232Z,71.03
2019-01-23T05:17:20.853Z,70.96
2019-01-23T05:19:48.249Z,70.56
2019-01-23T05:22:15.513Z,71.33
2019-01-23T05:24:43.036Z,71.24
2019-01-23T05:27:10.814Z,71.13
2019-01-23T05:29:39.108Z,71.04
2019-01-23T05:32:06.584Z,70.96
2019-01-23T05:34:34.140Z,70.98
2019-01-23T05:37:01.706Z,71.17
2019-01-23T05:39:29.057Z,71.19
2019-01-23T05:41:59.959Z,71.45
2019-01-23T05:44:27.250Z,71.09
2019-01-23T05:46:54.928Z,70.65
2019-01-23T05:49:23.032Z,70.93
2019-01-23T05:51:51.010Z,71.08
2019-01-23T05:54:18.924Z,70.99
2019-01-23T05:56:46.178Z,71.47
2019-01-23T05:59:13.742Z,71.34
2019-01-23T06:01:41.616Z,71.30
2019-01-23T06:04:09.453Z,70.48
2019-01-23T06:06:37.164Z,71.24
2019-01-23T06:09:08.085Z,70.82
2019-01-23T06:11:35.517Z,70.59
2019-01-23T06:14:02.905Z,70.69
2019-01-23T06:16:30.026Z,70.34
2019-01-23T06:18:57.939Z,70.76
2019-01-23T06:21:25.321Z,70.34
2019-01-23T06:23:52.966Z,70.24
2019-01-23T06:26:21.377Z,71.20
2019-01-23T06:28:48.654Z,70.22
2019-01-23T06:31:16.308Z,70.73
2019-01-23T06:33:43.666Z,70.16
2019-01-23T06:36:11.532Z,70.15
2019-01-23T06:38:39.066Z,70.69
2019-01-23T06:41:06.600Z,70.27
2019-01-23T06:43:34.285Z,69.89
2019-01-23T06:46:02.111Z,70.41
2019-01-23T06:48:29.349Z,69.93
2019-01-23T06:50:56.756Z,69.97
2019-01-23T06:53:24.257Z,69.72
2019-01-23T06:55:51.903Z,70.23
2019-01-23T06:58:19.035Z,70.54
2019-01-23T07:00:47.894Z,70.22
2019-01-23T07:03:15.096Z,70.44
2019-01-23T07:05:42.714Z,69.86
2019-01-23T07:08:10.360Z,70.46
2019-01-23T07:10:38.034Z,70.28
2019-01-23T07:13:06.075Z,70.07
2019-01-23T07:15:33.467Z,70.49
2019-01-23T07:18:00.997Z,70.53
2019-01-23T07:20:28.782Z,70.35
2019-01-23T07:22:56.083Z,70.46
2019-01-23T07:25:25.411Z,70.31
2019-01-23T07:27:52.890Z,70.29
2019-01-23T07:30:32.746Z,70.23
2019-01-23T07:33:00.545Z,69.76
2019-01-23T07:35:27.818Z,69.62
2019-01-23T07:37:55.512Z,70.33
2019-01-23T07:40:22.897Z,70.63
2019-01-23T07:42:50.523Z,69.81
2019-01-23T07:45:19.000Z,69.58
2019-01-23T07:47:47.334Z,69.45
2019-01-23T07:50:15.199Z,69.70
2019-01-23T07:52:42.593Z,69.33
2019-01-23T07:55:12.785Z,69.94
2019-01-23T07:57:40.307Z,69.49
2019-01-23T08:00:12.402Z,69.03
2019-01-23T08:02:40.154Z,69.69
2019-01-23T08:05:09.695Z,69.66
2019-01-23T08:07:37.367Z,69.96
2019-01-23T08:10:07.380Z,69.26
2019-01-23T08:12:34.611Z,69.56
2019-01-23T08:15:02.822Z,69.33
2019-01-23T08:17:32.966Z,68.78
2019-01-23T08:20:00.686Z,69.52
2019-01-23T08:22:28.346Z,69.47
2019-01-23T08:24:55.575Z,69.52
2019-01-23T08:27:23.071Z,69.27
2019-01-23T08:29:51.169Z,69.31
2019-01-23T08:32:18.690Z,69.12
2019-01-23T08:34:46.665Z,68.93
2019-01-23T08:37:13.932Z,68.78
2019-01-23T08:39:41.534Z,68.41
2019-01-23T08:42:09.566Z,68.75
2019-01-23T08:44:37.366Z,68.52
2019-01-23T08:47:04.893Z,69.07
2019-01-23T08:49:32.441Z,69.00
2019-01-23T08:52:00.839Z,68.04
2019-01-23T08:54:28.481Z,68.21
2019-01-23T08:56:56.122Z,68.84
2019-01-23T08:59:23.747Z,68.47
2019-01-23T09:01:51.817Z,68.76
2019-01-23T09:04:19.587Z,67.69
2019-01-23T09:06:46.848Z,68.59
2019-01-23T09:09:15.483Z,68.37
2019-01-23T09:11:42.967Z,68.29
2019-01-23T09:14:10.810Z,67.41
2019-01-23T09:16:38.238Z,66.49
2019-01-23T09:19:06.129Z,67.97
2019-01-23T09:21:33.253Z,67.49
2019-01-23T09:24:00.526Z,67.46
2019-01-23T09:26:28.245Z,67.30
2019-01-23T09:28:56.202Z,67.48
2019-01-23T09:32:05.291Z,67.40
2019-01-23T09:35:08.169Z,67.90
2019-01-23T09:38:30.398Z,67.23
2019-01-23T09:41:43.755Z,67.49
2019-01-23T09:45:11.077Z,67.42
2019-01-23T09:47:59.611Z,66.51
2019-01-23T09:51:14.031Z,67.27
2019-01-23T09:53:57.339Z,66.00
2019-01-23T09:56:24.960Z,66.88
2019-01-23T09:58:52.229Z,67.42
2019-01-23T10:01:19.870Z,65.80
2019-01-23T10:03:47.616Z,66.21
2019-01-23T10:06:15.270Z,66.61
2019-01-23T10:08:42.543Z,65.95
2019-01-23T10:11:09.909Z,66.83
2019-01-23T10:13:37.455Z,66.13
2019-01-23T10:16:17.550Z,66.28
2019-01-23T10:18:44.944Z,66.26
2019-01-23T10:21:12.911Z,64.45
2019-01-23T10:23:40.673Z,64.79
2019-01-23T10:26:08.627Z,65.71
2019-01-23T10:28:36.633Z,65.24
2019-01-23T10:31:06.772Z,64.98
2019-01-23T10:33:33.605Z,65.38
2019-01-23T10:36:01.436Z,66.42
2019-01-23T10:38:29.267Z,65.54
2019-01-23T10:40:56.893Z,65.99
2019-01-23T10:43:24.249Z,64.78
2019-01-23T10:45:51.630Z,65.62
2019-01-23T10:48:19.163Z,65.14
2019-01-23T10:50:47.534Z,64.46
2019-01-23T10:53:14.990Z,64.67
2019-01-23T10:55:42.378Z,65.66
2019-01-23T10:58:09.961Z,64.69
2019-01-23T11:00:38.359Z,65.19
2019-01-23T11:03:09.958Z,64.57
2019-01-23T11:05:35.850Z,64.32
2019-01-23T11:08:04.080Z,64.94
2019-01-23T11:10:31.606Z,64.92
2019-01-23T11:12:59.449Z,64.24
2019-01-23T11:15:27.503Z,64.73
2019-01-23T11:17:55.327Z,64.72
2019-01-23T11:20:23.150Z,64.19
2019-01-23T11:22:50.629Z,65.10
2019-01-23T11:25:18.656Z,65.83
2019-01-23T11:27:47.195Z,64.76
2019-01-23T11:30:19.153Z,64.90
2019-01-23T11:32:46.539Z,64.90
2019-01-23T11:35:14.195Z,64.18
2019-01-23T11:37:41.608Z,63.95
2019-01-23T11:40:15.125Z,64.57
2019-01-23T11:42:43.231Z,65.68
2019-01-23T11:45:11.454Z,64.04
2019-01-23T11:47:39.360Z,64.54
2019-01-23T11:50:08.835Z,63.74
2019-01-23T11:52:36.555Z,64.17
2019-01-23T11:55:05.974Z,63.33
2019-01-23T11:57:33.724Z,64.41
2019-01-23T12:00:01.078Z,64.89
2019-01-23T12:02:30.878Z,63.39
2019-01-23T12:04:58.544Z,63.10
2019-01-23T12:07:26.020Z,64.07
2019-01-23T12:09:56.833Z,64.25
2019-01-23T12:12:24.623Z,64.06
2019-01-23T12:14:52.645Z,63.02
2019-01-23T12:17:20.132Z,63.99
2019-01-23T12:19:47.765Z,64.20
2019-01-23T12:22:15.266Z,63.90
2019-01-23T12:24:43.282Z,65.37
2019-01-23T12:27:18.824Z,64.06
2019-01-23T12:29:49.330Z,64.19
2019-01-23T12:32:16.724Z,63.95
2019-01-23T12:34:45.026Z,64.21
2019-01-23T12:37:12.288Z,64.00
2019-01-23T12:39:39.396Z,65.41
2019-01-23T12:42:06.882Z,63.75
2019-01-23T12:44:34.686Z,63.99
2019-01-23T12:47:02.203Z,63.84
2019-01-23T12:49:29.322Z,63.65
2019-01-23T12:51:57.159Z,64.23
2019-01-23T12:54:25.015Z,65.56
2019-01-23T12:56:52.406Z,63.77
2019-01-23T12:59:20.065Z,63.71
2019-01-23T13:01:47.558Z,65.24
2019-01-23T13:04:15.348Z,64.26
2019-01-23T13:06:43.250Z,63.37
2019-01-23T13:09:10.631Z,64.18
2019-01-23T13:11:39.088Z,63.41
2019-01-23T13:14:06.965Z,64.93
2019-01-23T13:16:34.076Z,64.46
2019-01-23T13:19:01.714Z,64.13
2019-01-23T13:21:29.482Z,64.11
2019-01-23T13:23:56.916Z,64.15
2019-01-23T13:26:24.323Z,65.10
2019-01-23T13:28:51.739Z,64.54
2019-01-23T13:31:19.491Z,63.77
2019-01-23T13:33:47.113Z,64.07
2019-01-23T13:36:14.343Z,63.65
2019-01-23T13:38:42.624Z,64.53
2019-01-23T13:41:11.234Z,64.35
2019-01-23T13:43:39.249Z,63.44
2019-01-23T13:46:07.115Z,64.77
2019-01-23T13:48:34.514Z,63.93
2019-01-23T13:51:02.270Z,64.68
2019-01-23T13:53:30.404Z,64.01
2019-01-23T13:55:57.753Z,64.74
2019-01-23T13:58:25.437Z,64.31
2019-01-23T14:00:53.005Z,65.37
2019-01-23T14:03:20.534Z,64.16
2019-01-23T14:05:47.907Z,64.72
2019-01-23T14:08:15.391Z,64.38
2019-01-23T14:10:42.954Z,64.83
2019-01-23T14:13:10.320Z,64.71
2019-01-23T14:15:39.043Z,66.21
2019-01-23T14:18:07.198Z,66.16
2019-01-23T14:20:34.660Z,66.38
2019-01-23T14:23:02.656Z,64.67
2019-01-23T14:25:30.011Z,65.02
2019-01-23T14:27:57.522Z,65.51
2019-01-23T14:30:31.827Z,65.20
2019-01-23T14:32:59.572Z,64.87
2019-01-23T14:35:29.220Z,66.18
2019-01-23T14:38:00.811Z,66.16
2019-01-23T14:40:26.431Z,65.79
2019-01-23T14:42:53.828Z,65.95
2019-01-23T14:45:22.332Z,65.81
2019-01-23T14:47:50.244Z,66.39
2019-01-23T14:50:18.136Z,66.11
2019-01-23T14:52:46.205Z,66.04
2019-01-23T14:55:13.964Z,66.63
2019-01-23T14:57:41.746Z,66.69
2019-01-23T15:00:16.482Z,67.34
2019-01-23T15:02:44.191Z,66.49
2019-01-23T15:05:11.842Z,66.29
2019-01-23T15:07:39.828Z,67.37
2019-01-23T15:10:15.326Z,66.86
2019-01-23T15:12:45.499Z,67.07
2019-01-23T15:15:13.685Z,66.35
2019-01-23T15:17:41.610Z,66.96
2019-01-23T15:20:15.938Z,67.79
2019-01-23T15:22:44.225Z,66.72
2019-01-23T15:25:12.446Z,66.52
2019-01-23T15:27:41.484Z,66.60
2019-01-23T15:30:11.588Z,67.05
2019-01-23T15:32:39.861Z,67.21
2019-01-23T15:35:08.165Z,67.35
2019-01-23T15:37:35.986Z,67.47
2019-01-23T15:40:06.558Z,67.24
2019-01-23T15:42:34.058Z,67.48
2019-01-23T15:45:02.081Z,67.56
2019-01-23T15:47:30.013Z,67.26
2019-01-23T15:49:57.703Z,67.88
2019-01-23T15:52:24.975Z,67.66
2019-01-23T15:54:52.380Z,67.43
2019-01-23T15:57:20.035Z,67.89
2019-01-23T15:59:47.946Z,67.57
2019-01-23T16:02:15.850Z,67.79
2019-01-23T16:04:43.247Z,67.88
2019-01-23T16:07:10.868Z,68.73
2019-01-23T16:09:38.776Z,67.86
2019-01-23T16:12:06.481Z,67.84
2019-01-23T16:14:33.607Z,68.05
2019-01-23T16:17:01.030Z,67.96
2019-01-23T16:19:28.764Z,67.92
2019-01-23T16:21:57.027Z,68.49
2019-01-23T16:24:24.444Z,67.87
2019-01-23T16:26:51.824Z,67.87
2019-01-23T16:29:19.652Z,67.84
2019-01-23T16:31:47.938Z,68.30
2019-01-23T16:34:15.947Z,68.18
2019-01-23T16:36:44.151Z,67.81
2019-01-23T16:39:11.492Z,68.44
2019-01-23T16:41:38.966Z,67.76
2019-01-23T16:44:07.111Z,68.05
2019-01-23T16:46:34.370Z,67.99
2019-01-23T16:49:02.251Z,67.68
2019-01-23T16:51:29.551Z,67.92
2019-01-23T16:53:57.870Z,68.08
2019-01-23T16:56:25.275Z,67.67
2019-01-23T16:58:52.599Z,67.74
2019-01-23T17:01:20.008Z,68.42
2019-01-23T17:03:49.205Z,68.27
2019-01-23T17:06:16.709Z,68.11
2019-01-23T17:08:44.080Z,68.18
2019-01-23T17:11:11.542Z,67.88
2019-01-23T17:13:39.275Z,68.27
2019-01-23T17:16:07.108Z,68.30
2019-01-23T17:18:34.357Z,68.07
2019-01-23T17:21:03.030Z,68.59
2019-01-23T17:23:30.460Z,68.20
2019-01-23T17:25:58.340Z,68.36
2019-01-23T17:28:25.862Z,68.61
2019-01-23T17:30:53.398Z,68.74
2019-01-23T17:33:21.180Z,68.48
2019-01-23T17:35:48.397Z,68.45
2019-01-23T17:38:16.121Z,68.51
2019-01-23T17:40:44.126Z,68.29
2019-01-23T17:43:13.155Z,68.57
2019-01-23T17:45:41.090Z,68.40
2019-01-23T17:48:13.296Z,68.34
2019-01-23T17:50:41.456Z,68.65
2019-01-23T17:53:09.878Z,68.58
2019-01-23T17:55:39.088Z,68.52
2019-01-23T17:58:10.701Z,68.49
2019-01-23T18:00:41.242Z,68.64
2019-01-23T18:03:09.118Z,68.61
2019-01-23T18:05:37.321Z,68.59
2019-01-23T18:08:05.517Z,68.86
2019-01-23T18:10:33.909Z,68.90
2019-01-23T18:13:02.061Z,68.92
2019-01-23T18:15:29.787Z,69.12
2019-01-23T18:17:58.575Z,68.91
2019-01-23T18:20:27.781Z,69.05
2019-01-23T18:22:56.350Z,68.83
2019-01-23T18:25:25.413Z,68.82
2019-01-23T18:27:53.730Z,68.67
2019-01-23T18:30:41.750Z,68.82
2019-01-23T18:33:12.050Z,68.89
2019-01-23T18:36:10.189Z,69.15
2019-01-23T18:39:06.862Z,68.80
2019-01-23T18:42:39.304Z,69.39
2019-01-23T18:45:49.227Z,69.11
2019-01-23T18:49:19.820Z,69.04
2019-01-23T18:52:01.853Z,68.72
2019-01-23T18:54:29.219Z,69.08
2019-01-23T18:57:05.605Z,69.02
2019-01-23T18:59:33.300Z,69.16
2019-01-23T19:02:01.093Z,69.35
2019-01-23T19:04:28.743Z,69.08
2019-01-23T19:06:56.645Z,69.14
2019-01-23T19:09:24.846Z,69.12
2019-01-23T19:11:53.392Z,68.76
2019-01-23T19:14:24.598Z,68.85
2019-01-23T19:16:50.697Z,68.86
2019-01-23T19:19:21.915Z,69.05
2019-01-23T19:21:55.018Z,69.12
2019-01-23T19:24:19.415Z,68.93
2019-01-23T19:26:46.984Z,68.95
2019-01-23T19:29:14.876Z,69.25
2019-01-23T19:31:42.144Z,68.84
2019-01-23T19:34:10.014Z,68.94
2019-01-23T19:36:37.394Z,68.92
2019-01-23T19:39:07.887Z,69.25
2019-01-23T19:41:35.747Z,69.31
2019-01-23T19:44:05.647Z,69.29
2019-01-23T19:46:33.403Z,69.11
2019-01-23T19:49:01.014Z,68.99
2019-01-23T19:51:28.696Z,68.93
2019-01-23T19:53:56.337Z,68.86
2019-01-23T19:56:24.046Z,67.97
2019-01-23T19:58:51.287Z,68.15
2019-01-23T20:01:18.787Z,67.71
2019-01-23T20:03:46.669Z,68.67
2019-01-23T20:06:14.489Z,67.55
2019-01-23T20:08:42.719Z,68.22
2019-01-23T20:11:10.555Z,67.74
2019-01-23T20:13:37.870Z,67.48
2019-01-23T20:16:05.204Z,68.14
2019-01-23T20:18:32.805Z,68.30
2019-01-23T20:21:00.504Z,67.45
2019-01-23T20:23:27.886Z,67.69
2019-01-23T20:25:55.874Z,67.91
2019-01-23T20:28:23.704Z,67.61
2019-01-23T20:30:51.472Z,67.20
2019-01-23T20:33:19.065Z,67.97
2019-01-23T20:35:46.303Z,68.00
2019-01-23T20:38:13.657Z,67.79
2019-01-23T20:40:41.242Z,67.92
2019-01-23T20:43:09.583Z,67.47
2019-01-23T20:45:37.270Z,68.01
2019-01-23T20:48:07.605Z,67.83
2019-01-23T20:50:35.351Z,67.89
2019-01-23T20:53:03.238Z,68.34
2019-01-23T20:55:31.297Z,67.66
2019-01-23T20:57:58.964Z,67.81
2019-01-23T21:00:31.555Z,67.87
2019-01-23T21:02:59.233Z,67.88
2019-01-23T21:05:27.356Z,68.06
2019-01-23T21:07:54.990Z,67.95
2019-01-23T21:10:22.797Z,68.00
2019-01-23T21:12:50.276Z,67.91
2019-01-23T21:15:27.318Z,68.05
2019-01-23T21:17:54.883Z,68.01
2019-01-23T21:20:22.362Z,67.53
2019-01-23T21:22:50.154Z,67.70
2019-01-23T21:25:17.694Z,67.98
2019-01-23T21:27:45.451Z,67.43
2019-01-23T21:30:17.238Z,68.39
2019-01-23T21:32:44.649Z,67.95
2019-01-23T21:35:12.965Z,67.75
2019-01-23T21:37:40.875Z,67.54
2019-01-23T21:40:16.009Z,67.69
2019-01-23T21:42:43.719Z,68.13
2019-01-23T21:45:11.736Z,67.77
2019-01-23T21:47:39.668Z,68.28
2019-01-23T21:50:12.272Z,67.93
2019-01-23T21:52:39.576Z,67.75
2019-01-23T21:55:09.658Z,68.06
2019-01-23T21:57:37.691Z,67.78
2019-01-23T22:00:11.672Z,67.49
2019-01-23T22:02:38.829Z,67.80
2019-01-23T22:05:07.363Z,67.97
2019-01-23T22:07:34.776Z,67.79
2019-01-23T22:10:02.725Z,67.86
2019-01-23T22:12:30.684Z,67.83
2019-01-23T22:14:58.238Z,67.94
2019-01-23T22:17:25.702Z,67.64
2019-01-23T22:19:53.326Z,67.50
2019-01-23T22:22:20.879Z,67.67
2019-01-23T22:24:48.969Z,67.59
2019-01-23T22:27:16.477Z,67.53
2019-01-23T22:29:43.990Z,67.53
2019-01-23T22:32:11.641Z,67.39
2019-01-23T22:34:39.327Z,67.22
2019-01-23T22:37:07.189Z,66.99
2019-01-23T22:39:34.653Z,67.16
2019-01-23T22:42:02.050Z,66.73
2019-01-23T22:44:29.946Z,66.93
2019-01-23T22:46:57.585Z,67.49
2019-01-23T22:49:25.369Z,66.89
2019-01-23T22:51:52.797Z,67.06
2019-01-23T22:54:21.326Z,66.66
2019-01-23T22:56:49.504Z,67.17
2019-01-23T22:59:16.741Z,66.52
2019-01-23T23:01:44.905Z,67.28
2019-01-23T23:04:12.379Z,67.47
2019-01-23T23:06:40.360Z,67.20
2019-01-23T23:09:09.941Z,66.96
2019-01-23T23:11:37.472Z,67.32
2019-01-23T23:14:05.226Z,66.98
2019-01-23T23:16:32.815Z,67.67
2019-01-23T23:19:00.337Z,67.44
2019-01-23T23:21:28.425Z,67.12
2019-01-23T23:23:56.126Z,67.66
2019-01-23T23:26:23.571Z,67.89
2019-01-23T23:28:51.305Z,67.98
2019-01-23T23:31:18.993Z,67.86
2019-01-23T23:33:48.304Z,67.90
2019-01-23T23:36:16.208Z,67.91
2019-01-23T23:38:43.489Z,67.89
2019-01-23T23:41:11.302Z,67.85
2019-01-23T23:43:38.779Z,68.13
2019-01-23T23:46:06.109Z,68.38
2019-01-23T23:48:33.555Z,68.24
2019-01-23T23:51:01.383Z,68.26
2019-01-23T23:53:29.403Z,68.17
2019-01-23T23:55:57.417Z,68.09
2019-01-23T23:58:25.683Z,68.30
